Rechercher aéroport 
image banner adimage banner adimage banner ad
image banner ad

67L - Mesquite

Situé à Mesquite, United States

ICAO - 67L, IATA -

Données fournies par Airmate  

Information générale

Coordonnées: N36°49'59" W114°3'21"
Élévation : 1978 feet MSL.
Variation magnétique : 11° East
Voir autres Aéroports à Nevada

Données opérationnelles

Special qualification required
Heure actuelle UTC:
Heure actuelle locale:
Météo à : KSGU - St George Rgnl ( 53 km )
METAR: KSGU 292156Z AUTO 00000KT 10SM CLR 37/12 A2993 RMK AO2 SLP089 T03670117 PNO $
TAF: KSGU 291720Z 2918/3018 VRB06KT P6SM SCT150 FM292100 24009KT P6SM VCTS BKN150CB FM300300 08005KT P6SM BKN150
Voir NOTAMs / SUP AIP / TFR affectant cet aéroport [VIEW]
Fréquences de communication: [VIEW]

Pistes:

Identifiant RWYQFULongueur (ft)Largeur (ft)SurfaceLDA (ft)
02512175ASPH
20512175ASPH

Coordonnées de l'aéroport

Adresse: Mesquite United States

Vue satellite de 67L